sensor_id;sensor_type;location;lat;lon;timestamp;pressure;altitude;pressure_sealevel;temperature;humidity
72308;BME280;60257;42.638;23.376;2023-01-26T00:02:16;95067.16;;;-0.27;72.99
72308;BME280;60257;42.638;23.376;2023-01-26T00:04:42;95067.66;;;-0.30;73.18
72308;BME280;60257;42.638;23.376;2023-01-26T00:07:07;95077.66;;;-0.31;73.65
72308;BME280;60257;42.638;23.376;2023-01-26T00:09:32;95074.69;;;-0.29;73.06
72308;BME280;60257;42.638;23.376;2023-01-26T00:11:58;95061.22;;;-0.29;73.34
72308;BME280;60257;42.638;23.376;2023-01-26T00:14:23;95071.47;;;-0.26;73.09
72308;BME280;60257;42.638;23.376;2023-01-26T00:16:49;95076.31;;;-0.23;72.75
72308;BME280;60257;42.638;23.376;2023-01-26T00:19:14;95076.31;;;-0.18;72.38
72308;BME280;60257;42.638;23.376;2023-01-26T00:21:39;95069.84;;;-0.22;72.40
72308;BME280;60257;42.638;23.376;2023-01-26T00:24:05;95077.38;;;-0.14;72.22
72308;BME280;60257;42.638;23.376;2023-01-26T00:26:31;95071.75;;;-0.18;72.42
72308;BME280;60257;42.638;23.376;2023-01-26T00:28:59;95076.06;;;-0.17;72.35
72308;BME280;60257;42.638;23.376;2023-01-26T00:31:25;95063.38;;;-0.16;72.63
72308;BME280;60257;42.638;23.376;2023-01-26T00:33:53;95063.63;;;-0.28;72.69
72308;BME280;60257;42.638;23.376;2023-01-26T00:36:19;95042.63;;;-0.21;72.00
72308;BME280;60257;42.638;23.376;2023-01-26T00:38:45;95044.75;;;-0.23;72.49
72308;BME280;60257;42.638;23.376;2023-01-26T00:41:11;95049.38;;;-0.33;72.58
72308;BME280;60257;42.638;23.376;2023-01-26T00:43:56;95038.59;;;-0.33;72.43
72308;BME280;60257;42.638;23.376;2023-01-26T00:46:22;95040.47;;;-0.39;72.90
72308;BME280;60257;42.638;23.376;2023-01-26T00:48:47;95041.81;;;-0.36;72.77
72308;BME280;60257;42.638;23.376;2023-01-26T00:51:13;95043.41;;;-0.30;72.06
72308;BME280;60257;42.638;23.376;2023-01-26T00:53:38;95043.72;;;-0.32;71.96
72308;BME280;60257;42.638;23.376;2023-01-26T00:56:04;95040.47;;;-0.34;72.07
72308;BME280;60257;42.638;23.376;2023-01-26T00:58:29;95034.81;;;-0.32;71.77
72308;BME280;60257;42.638;23.376;2023-01-26T01:00:55;95028.59;;;-0.28;71.71
72308;BME280;60257;42.638;23.376;2023-01-26T01:03:20;95030.50;;;-0.33;71.98
72308;BME280;60257;42.638;23.376;2023-01-26T01:05:46;95024.31;;;-0.39;72.16
72308;BME280;60257;42.638;23.376;2023-01-26T01:08:11;95023.50;;;-0.34;71.79
72308;BME280;60257;42.638;23.376;2023-01-26T01:10:36;95017.03;;;-0.44;72.07
72308;BME280;60257;42.638;23.376;2023-01-26T01:13:02;95017.56;;;-0.36;71.39
72308;BME280;60257;42.638;23.376;2023-01-26T01:15:28;95023.50;;;-0.34;71.78
72308;BME280;60257;42.638;23.376;2023-01-26T01:17:53;95023.50;;;-0.40;71.55
72308;BME280;60257;42.638;23.376;2023-01-26T01:20:18;95015.13;;;-0.38;71.52
72308;BME280;60257;42.638;23.376;2023-01-26T01:22:44;94999.53;;;-0.41;71.53
72308;BME280;60257;42.638;23.376;2023-01-26T01:25:10;95014.06;;;-0.37;71.35
72308;BME280;60257;42.638;23.376;2023-01-26T01:27:35;95008.41;;;-0.41;71.37
72308;BME280;60257;42.638;23.376;2023-01-26T01:30:01;95010.56;;;-0.38;71.12
72308;BME280;60257;42.638;23.376;2023-01-26T01:32:33;95011.09;;;-0.35;70.85
72308;BME280;60257;42.638;23.376;2023-01-26T01:34:59;95014.34;;;-0.33;71.13
72308;BME280;60257;42.638;23.376;2023-01-26T01:37:24;95012.97;;;-0.36;70.72
72308;BME280;60257;42.638;23.376;2023-01-26T01:39:50;95005.16;;;-0.38;70.43
72308;BME280;60257;42.638;23.376;2023-01-26T01:42:15;95003.56;;;-0.33;70.80
72308;BME280;60257;42.638;23.376;2023-01-26T01:44:41;95004.38;;;-0.33;70.57
72308;BME280;60257;42.638;23.376;2023-01-26T01:47:20;95001.94;;;-0.34;70.26
72308;BME280;60257;42.638;23.376;2023-01-26T01:49:50;95005.19;;;-0.32;70.45
72308;BME280;60257;42.638;23.376;2023-01-26T01:52:21;95001.41;;;-0.47;70.26
72308;BME280;60257;42.638;23.376;2023-01-26T01:54:56;95001.66;;;-0.38;70.57
72308;BME280;60257;42.638;23.376;2023-01-26T01:57:31;95011.91;;;-0.40;70.74
72308;BME280;60257;42.638;23.376;2023-01-26T02:00:11;95000.06;;;-0.34;70.48
72308;BME280;60257;42.638;23.376;2023-01-26T02:02:38;94998.97;;;-0.53;71.67
72308;BME280;60257;42.638;23.376;2023-01-26T02:05:16;94996.53;;;-0.45;70.86
72308;BME280;60257;42.638;23.376;2023-01-26T02:07:47;94996.25;;;-0.38;70.41
72308;BME280;60257;42.638;23.376;2023-01-26T02:10:17;94980.13;;;-0.48;70.42
72308;BME280;60257;42.638;23.376;2023-01-26T02:12:46;94981.19;;;-0.39;70.28
72308;BME280;60257;42.638;23.376;2023-01-26T02:15:13;94983.63;;;-0.48;70.75
72308;BME280;60257;42.638;23.376;2023-01-26T02:17:39;94978.25;;;-0.48;70.80
72308;BME280;60257;42.638;23.376;2023-01-26T02:20:20;94966.91;;;-0.60;70.78
72308;BME280;60257;42.638;23.376;2023-01-26T02:26:01;94959.38;;;-0.43;71.27
72308;BME280;60257;42.638;23.376;2023-01-26T02:28:28;94948.31;;;-0.46;71.26
72308;BME280;60257;42.638;23.376;2023-01-26T02:30:55;94955.59;;;-0.52;70.96
72308;BME280;60257;42.638;23.376;2023-01-26T02:33:26;94953.72;;;-0.56;71.52
72308;BME280;60257;42.638;23.376;2023-01-26T02:35:53;94938.91;;;-0.69;71.33
72308;BME280;60257;42.638;23.376;2023-01-26T02:38:20;94954.53;;;-0.51;71.12
72308;BME280;60257;42.638;23.376;2023-01-26T02:41:01;94947.78;;;-0.43;71.30
72308;BME280;60257;42.638;23.376;2023-01-26T02:43:29;94938.59;;;-0.37;70.24
72308;BME280;60257;42.638;23.376;2023-01-26T02:45:54;94938.38;;;-0.41;70.94
72308;BME280;60257;42.638;23.376;2023-01-26T02:48:20;94935.66;;;-0.51;70.95
72308;BME280;60257;42.638;23.376;2023-01-26T02:51:04;94933.25;;;-0.47;71.04
72308;BME280;60257;42.638;23.376;2023-01-26T02:53:30;94933.78;;;-0.45;71.17
72308;BME280;60257;42.638;23.376;2023-01-26T02:55:56;94931.34;;;-0.42;71.31
72308;BME280;60257;42.638;23.376;2023-01-26T02:58:21;94923.56;;;-0.48;70.79
72308;BME280;60257;42.638;23.376;2023-01-26T03:00:47;94921.13;;;-0.50;71.13
72308;BME280;60257;42.638;23.376;2023-01-26T03:03:23;94920.59;;;-0.52;71.40
72308;BME280;60257;42.638;23.376;2023-01-26T03:05:50;94913.28;;;-0.46;71.80
72308;BME280;60257;42.638;23.376;2023-01-26T03:08:16;94908.72;;;-0.46;70.88
72308;BME280;60257;42.638;23.376;2023-01-26T03:10:41;94915.72;;;-0.45;71.18
72308;BME280;60257;42.638;23.376;2023-01-26T03:13:07;94909.53;;;-0.50;70.78
72308;BME280;60257;42.638;23.376;2023-01-26T03:15:32;94909.53;;;-0.50;71.53
72308;BME280;60257;42.638;23.376;2023-01-26T03:18:25;94900.91;;;-0.52;70.83
72308;BME280;60257;42.638;23.376;2023-01-26T03:21:12;94898.78;;;-0.65;71.57
72308;BME280;60257;42.638;23.376;2023-01-26T03:24:05;94889.09;;;-0.56;70.70
72308;BME280;60257;42.638;23.376;2023-01-26T03:26:49;94886.69;;;-0.63;71.48
72308;BME280;60257;42.638;23.376;2023-01-26T03:29:33;94876.94;;;-0.49;70.56
72308;BME280;60257;42.638;23.376;2023-01-26T03:31:58;94877.50;;;-0.57;70.81
72308;BME280;60257;42.638;23.376;2023-01-26T03:34:25;94877.22;;;-0.50;70.78
72308;BME280;60257;42.638;23.376;2023-01-26T03:36:50;94878.56;;;-0.53;70.37
72308;BME280;60257;42.638;23.376;2023-01-26T03:39:16;94884.47;;;-0.46;70.47
72308;BME280;60257;42.638;23.376;2023-01-26T03:42:00;94875.06;;;-0.48;69.87
72308;BME280;60257;42.638;23.376;2023-01-26T03:44:44;94877.75;;;-0.48;70.80
72308;BME280;60257;42.638;23.376;2023-01-26T03:47:31;94882.84;;;-0.42;70.20
72308;BME280;60257;42.638;23.376;2023-01-26T03:50:15;94868.88;;;-0.49;70.55
72308;BME280;60257;42.638;23.376;2023-01-26T03:53:00;94869.13;;;-0.40;69.61
72308;BME280;60257;42.638;23.376;2023-01-26T03:55:44;94865.59;;;-0.46;70.27
72308;BME280;60257;42.638;23.376;2023-01-26T03:58:27;94867.28;;;-0.55;70.51
72308;BME280;60257;42.638;23.376;2023-01-26T04:00:55;94861.34;;;-0.57;70.77
72308;BME280;60257;42.638;23.376;2023-01-26T04:03:21;94849.22;;;-0.64;70.97
72308;BME280;60257;42.638;23.376;2023-01-26T04:06:05;94847.59;;;-0.55;70.60
72308;BME280;60257;42.638;23.376;2023-01-26T04:08:49;94845.41;;;-0.43;70.21
72308;BME280;60257;42.638;23.376;2023-01-26T04:11:14;94846.22;;;-0.43;71.07
72308;BME280;60257;42.638;23.376;2023-01-26T04:13:40;94845.16;;;-0.47;70.40
72308;BME280;60257;42.638;23.376;2023-01-26T04:16:23;94846.50;;;-0.49;70.82
72308;BME280;60257;42.638;23.376;2023-01-26T04:19:07;94831.66;;;-0.42;70.92
72308;BME280;60257;42.638;23.376;2023-01-26T04:21:52;94826.31;;;-0.47;70.74
72308;BME280;60257;42.638;23.376;2023-01-26T04:24:17;94824.97;;;-0.49;71.00
72308;BME280;60257;42.638;23.376;2023-01-26T04:26:47;94820.13;;;-0.57;70.65
72308;BME280;60257;42.638;23.376;2023-01-26T04:29:14;94820.94;;;-0.62;70.96
72308;BME280;60257;42.638;23.376;2023-01-26T04:31:41;94824.16;;;-0.55;71.02
72308;BME280;60257;42.638;23.376;2023-01-26T04:34:11;94803.44;;;-0.69;71.56
72308;BME280;60257;42.638;23.376;2023-01-26T04:36:38;94820.41;;;-0.64;71.29
72308;BME280;60257;42.638;23.376;2023-01-26T04:39:03;94820.09;;;-0.42;70.30
72308;BME280;60257;42.638;23.376;2023-01-26T04:41:30;94811.72;;;-0.46;70.56
72308;BME280;60257;42.638;23.376;2023-01-26T04:43:56;94812.84;;;-0.57;70.83
72308;BME280;60257;42.638;23.376;2023-01-26T04:46:21;94816.34;;;-0.56;71.07
72308;BME280;60257;42.638;23.376;2023-01-26T04:48:47;94810.69;;;-0.55;70.64
72308;BME280;60257;42.638;23.376;2023-01-26T04:51:17;94807.19;;;-0.50;70.63
72308;BME280;60257;42.638;23.376;2023-01-26T04:53:44;94820.66;;;-0.55;70.98
72308;BME280;60257;42.638;23.376;2023-01-26T04:56:25;94819.28;;;-0.53;70.68
72308;BME280;60257;42.638;23.376;2023-01-26T04:58:51;94820.38;;;-0.54;70.40
72308;BME280;60257;42.638;23.376;2023-01-26T05:01:17;94822.81;;;-0.57;70.67
72308;BME280;60257;42.638;23.376;2023-01-26T05:03:43;94822.00;;;-0.48;70.48
72308;BME280;60257;42.638;23.376;2023-01-26T05:06:08;94825.72;;;-0.39;70.17
72308;BME280;60257;42.638;23.376;2023-01-26T05:08:35;94825.16;;;-0.30;70.11
72308;BME280;60257;42.638;23.376;2023-01-26T05:11:01;94817.88;;;-0.30;69.47
72308;BME280;60257;42.638;23.376;2023-01-26T05:13:27;94816.84;;;-0.39;69.85
72308;BME280;60257;42.638;23.376;2023-01-26T05:15:52;94814.63;;;-0.27;69.02
72308;BME280;60257;42.638;23.376;2023-01-26T05:18:18;94817.59;;;-0.23;69.26
72308;BME280;60257;42.638;23.376;2023-01-26T05:20:43;94793.47;;;-0.59;69.60
72308;BME280;60257;42.638;23.376;2023-01-26T05:23:09;94808.72;;;-0.29;69.52
72308;BME280;60257;42.638;23.376;2023-01-26T05:25:34;94807.41;;;-0.36;69.85
72308;BME280;60257;42.638;23.376;2023-01-26T05:28:00;94802.81;;;-0.36;69.62
72308;BME280;60257;42.638;23.376;2023-01-26T05:30:25;94801.44;;;-0.28;69.30
72308;BME280;60257;42.638;23.376;2023-01-26T05:32:51;94790.13;;;-0.30;69.18
72308;BME280;60257;42.638;23.376;2023-01-26T05:35:17;94802.78;;;-0.31;69.55
72308;BME280;60257;42.638;23.376;2023-01-26T05:37:42;94806.31;;;-0.35;69.82
72308;BME280;60257;42.638;23.376;2023-01-26T05:40:10;94796.38;;;-0.40;70.19
72308;BME280;60257;42.638;23.376;2023-01-26T05:42:36;94800.69;;;-0.39;70.42
72308;BME280;60257;42.638;23.376;2023-01-26T05:45:02;94797.41;;;-0.36;69.93
72308;BME280;60257;42.638;23.376;2023-01-26T05:47:28;94803.59;;;-0.30;69.46
72308;BME280;60257;42.638;23.376;2023-01-26T05:49:53;94806.59;;;-0.32;69.52
72308;BME280;60257;42.638;23.376;2023-01-26T05:52:21;94801.69;;;-0.30;69.41
72308;BME280;60257;42.638;23.376;2023-01-26T05:54:47;94805.72;;;-0.22;69.50
72308;BME280;60257;42.638;23.376;2023-01-26T05:57:12;94805.94;;;-0.14;68.71
72308;BME280;60257;42.638;23.376;2023-01-26T05:59:38;94796.50;;;-0.11;69.01
72308;BME280;60257;42.638;23.376;2023-01-26T06:02:03;94804.06;;;-0.13;69.43
72308;BME280;60257;42.638;23.376;2023-01-26T06:04:29;94793.81;;;-0.11;69.26
72308;BME280;60257;42.638;23.376;2023-01-26T06:06:57;94795.22;;;-0.24;69.41
72308;BME280;60257;42.638;23.376;2023-01-26T06:09:29;94789.22;;;-0.11;68.97
72308;BME280;60257;42.638;23.376;2023-01-26T06:12:03;94788.66;;;-0.08;69.50
72308;BME280;60257;42.638;23.376;2023-01-26T06:14:28;94795.63;;;0.04;68.95
72308;BME280;60257;42.638;23.376;2023-01-26T06:16:53;94791.59;;;0.01;68.46
72308;BME280;60257;42.638;23.376;2023-01-26T06:19:21;94792.69;;;0.00;68.30
72308;BME280;60257;42.638;23.376;2023-01-26T06:21:46;94790.84;;;-0.10;68.53
72308;BME280;60257;42.638;23.376;2023-01-26T06:24:12;94793.47;;;0.00;68.39
72308;BME280;60257;42.638;23.376;2023-01-26T06:26:37;94785.59;;;0.09;68.62
72308;BME280;60257;42.638;23.376;2023-01-26T06:29:03;94769.50;;;-0.01;68.48
72308;BME280;60257;42.638;23.376;2023-01-26T06:31:29;94784.81;;;0.09;68.54
72308;BME280;60257;42.638;23.376;2023-01-26T06:33:55;94766.50;;;0.00;68.65
72308;BME280;60257;42.638;23.376;2023-01-26T06:36:20;94776.16;;;0.12;68.19
72308;BME280;60257;42.638;23.376;2023-01-26T06:38:48;94778.00;;;0.16;67.90
72308;BME280;60257;42.638;23.376;2023-01-26T06:41:14;94765.41;;;0.07;68.29
72308;BME280;60257;42.638;23.376;2023-01-26T06:43:43;94756.81;;;0.05;67.97
72308;BME280;60257;42.638;23.376;2023-01-26T06:46:09;94776.97;;;0.12;67.97
72308;BME280;60257;42.638;23.376;2023-01-26T06:48:35;94779.63;;;0.17;68.02
72308;BME280;60257;42.638;23.376;2023-01-26T06:53:56;94776.16;;;0.12;67.77
72308;BME280;60257;42.638;23.376;2023-01-26T06:56:23;94770.28;;;0.05;68.49
72308;BME280;60257;42.638;23.376;2023-01-26T06:58:49;94773.78;;;0.05;68.23
72308;BME280;60257;42.638;23.376;2023-01-26T07:01:20;94768.16;;;-0.04;69.02
72308;BME280;60257;42.638;23.376;2023-01-26T07:03:50;94772.47;;;-0.03;69.48
72308;BME280;60257;42.638;23.376;2023-01-26T07:06:16;94774.91;;;-0.06;69.42
72308;BME280;60257;42.638;23.376;2023-01-26T07:08:41;94765.22;;;-0.07;69.34
72308;BME280;60257;42.638;23.376;2023-01-26T07:11:07;94767.91;;;-0.02;69.03
72308;BME280;60257;42.638;23.376;2023-01-26T07:13:34;94754.59;;;0.12;69.08
72308;BME280;60257;42.638;23.376;2023-01-26T07:16:04;94764.00;;;0.19;68.46
72308;BME280;60257;42.638;23.376;2023-01-26T07:18:29;94757.47;;;0.25;68.69
72308;BME280;60257;42.638;23.376;2023-01-26T07:21:00;94732.66;;;0.23;68.32
72308;BME280;60257;42.638;23.376;2023-01-26T07:23:26;94749.47;;;0.15;68.96
72308;BME280;60257;42.638;23.376;2023-01-26T07:25:52;94748.88;;;0.18;69.07
72308;BME280;60257;42.638;23.376;2023-01-26T07:28:17;94749.41;;;0.20;68.99
72308;BME280;60257;42.638;23.376;2023-01-26T07:30:43;94754.22;;;0.28;68.59
72308;BME280;60257;42.638;23.376;2023-01-26T07:33:08;94742.84;;;0.36;68.68
72308;BME280;60257;42.638;23.376;2023-01-26T07:35:34;94749.84;;;0.37;68.68
72308;BME280;60257;42.638;23.376;2023-01-26T07:38:02;94742.47;;;0.48;68.44
72308;BME280;60257;42.638;23.376;2023-01-26T07:40:28;94731.66;;;0.48;68.56
72308;BME280;60257;42.638;23.376;2023-01-26T07:42:54;94738.63;;;0.54;68.25
72308;BME280;60257;42.638;23.376;2023-01-26T07:45:20;94731.94;;;0.47;68.09
72308;BME280;60257;42.638;23.376;2023-01-26T07:47:45;94740.94;;;0.37;68.79
72308;BME280;60257;42.638;23.376;2023-01-26T07:50:11;94747.38;;;0.41;68.54
72308;BME280;60257;42.638;23.376;2023-01-26T07:52:37;94744.06;;;0.49;68.48
72308;BME280;60257;42.638;23.376;2023-01-26T07:55:03;94732.72;;;0.52;68.10
72308;BME280;60257;42.638;23.376;2023-01-26T07:57:28;94741.06;;;0.56;68.18
72308;BME280;60257;42.638;23.376;2023-01-26T07:59:54;94744.56;;;0.56;68.23
72308;BME280;60257;42.638;23.376;2023-01-26T08:02:19;94732.06;;;0.65;67.70
72308;BME280;60257;42.638;23.376;2023-01-26T08:04:45;94727.88;;;0.83;67.52
72308;BME280;60257;42.638;23.376;2023-01-26T08:07:11;94720.56;;;0.84;66.97
72308;BME280;60257;42.638;23.376;2023-01-26T08:09:36;94734.22;;;0.97;66.84
72308;BME280;60257;42.638;23.376;2023-01-26T08:12:02;94728.53;;;0.99;66.61
72308;BME280;60257;42.638;23.376;2023-01-26T08:14:27;94716.31;;;1.06;66.77
72308;BME280;60257;42.638;23.376;2023-01-26T08:16:53;94710.91;;;1.06;66.63
72308;BME280;60257;42.638;23.376;2023-01-26T08:19:18;94718.94;;;1.11;66.15
72308;BME280;60257;42.638;23.376;2023-01-26T08:21:44;94716.78;;;1.08;66.24
72308;BME280;60257;42.638;23.376;2023-01-26T08:24:12;94720.31;;;1.09;65.74
72308;BME280;60257;42.638;23.376;2023-01-26T08:26:38;94721.63;;;1.11;65.79
72308;BME280;60257;42.638;23.376;2023-01-26T08:29:03;94702.00;;;1.06;66.02
72308;BME280;60257;42.638;23.376;2023-01-26T08:31:29;94715.72;;;1.09;65.75
72308;BME280;60257;42.638;23.376;2023-01-26T08:33:55;94706.69;;;1.19;65.88
72308;BME280;60257;42.638;23.376;2023-01-26T08:36:21;94697.06;;;1.13;65.67
72308;BME280;60257;42.638;23.376;2023-01-26T08:38:47;94707.63;;;1.33;64.82
72308;BME280;60257;42.638;23.376;2023-01-26T08:41:12;94701.22;;;1.24;65.09
72308;BME280;60257;42.638;23.376;2023-01-26T08:43:38;94702.09;;;1.20;64.89
72308;BME280;60257;42.638;23.376;2023-01-26T08:46:04;94688.88;;;1.18;64.72
72308;BME280;60257;42.638;23.376;2023-01-26T08:48:29;94700.59;;;1.08;64.96
72308;BME280;60257;42.638;23.376;2023-01-26T08:50:58;94704.00;;;1.19;65.13
72308;BME280;60257;42.638;23.376;2023-01-26T08:53:24;94710.38;;;1.28;64.10
72308;BME280;60257;42.638;23.376;2023-01-26T08:55:50;94707.28;;;1.16;64.47
72308;BME280;60257;42.638;23.376;2023-01-26T08:58:15;94707.69;;;1.28;64.54
72308;BME280;60257;42.638;23.376;2023-01-26T09:00:41;94707.13;;;1.31;64.02
72308;BME280;60257;42.638;23.376;2023-01-26T09:03:07;94701.28;;;1.19;63.60
72308;BME280;60257;42.638;23.376;2023-01-26T09:05:35;94713.19;;;1.18;64.01
72308;BME280;60257;42.638;23.376;2023-01-26T09:08:02;94704.97;;;1.28;63.96
72308;BME280;60257;42.638;23.376;2023-01-26T09:10:27;94693.94;;;1.25;64.31
72308;BME280;60257;42.638;23.376;2023-01-26T09:12:53;94709.63;;;1.46;63.90
72308;BME280;60257;42.638;23.376;2023-01-26T09:15:18;94702.34;;;1.47;63.83
72308;BME280;60257;42.638;23.376;2023-01-26T09:17:47;94692.25;;;1.52;63.85
72308;BME280;60257;42.638;23.376;2023-01-26T09:20:13;94681.00;;;1.45;63.49
72308;BME280;60257;42.638;23.376;2023-01-26T09:22:39;94679.03;;;1.51;63.63
72308;BME280;60257;42.638;23.376;2023-01-26T09:25:05;94687.69;;;1.29;64.23
72308;BME280;60257;42.638;23.376;2023-01-26T09:27:31;94671.91;;;1.36;64.29
72308;BME280;60257;42.638;23.376;2023-01-26T09:29:56;94677.09;;;1.33;64.15
72308;BME280;60257;42.638;23.376;2023-01-26T09:32:22;94663.94;;;1.26;64.79
72308;BME280;60257;42.638;23.376;2023-01-26T09:34:47;94651.88;;;1.19;64.72
72308;BME280;60257;42.638;23.376;2023-01-26T09:37:14;94662.09;;;1.22;64.70
72308;BME280;60257;42.638;23.376;2023-01-26T09:39:39;94656.09;;;1.25;64.49
72308;BME280;60257;42.638;23.376;2023-01-26T09:44:49;94663.75;;;1.41;63.89
72308;BME280;60257;42.638;23.376;2023-01-26T09:47:58;94671.50;;;1.48;64.65
72308;BME280;60257;42.638;23.376;2023-01-26T09:50:34;94654.19;;;1.49;64.24
72308;BME280;60257;42.638;23.376;2023-01-26T09:53:08;94654.47;;;1.47;63.87
72308;BME280;60257;42.638;23.376;2023-01-26T09:55:36;94626.00;;;1.55;63.72
72308;BME280;60257;42.638;23.376;2023-01-26T09:58:05;94633.09;;;1.51;64.53
72308;BME280;60257;42.638;23.376;2023-01-26T10:00:47;94634.69;;;1.71;63.36
72308;BME280;60257;42.638;23.376;2023-01-26T10:06:05;94642.81;;;1.89;63.56
72308;BME280;60257;42.638;23.376;2023-01-26T10:08:38;94632.44;;;1.97;63.01
72308;BME280;60257;42.638;23.376;2023-01-26T10:14:09;94637.13;;;1.91;62.91
72308;BME280;60257;42.638;23.376;2023-01-26T10:16:38;94632.75;;;1.76;63.35
72308;BME280;60257;42.638;23.376;2023-01-26T10:19:15;94619.13;;;1.81;62.92
72308;BME280;60257;42.638;23.376;2023-01-26T10:21:48;94606.28;;;1.73;63.87
72308;BME280;60257;42.638;23.376;2023-01-26T10:24:19;94603.81;;;1.77;63.45
72308;BME280;60257;42.638;23.376;2023-01-26T10:26:46;94591.66;;;1.74;63.44
72308;BME280;60257;42.638;23.376;2023-01-26T10:29:20;94593.06;;;1.72;63.27
72308;BME280;60257;42.638;23.376;2023-01-26T10:31:46;94582.03;;;1.68;63.39
72308;BME280;60257;42.638;23.376;2023-01-26T10:34:30;94582.47;;;1.75;63.64
72308;BME280;60257;42.638;23.376;2023-01-26T10:37:20;94574.16;;;1.53;63.72
72308;BME280;60257;42.638;23.376;2023-01-26T10:40:04;94575.31;;;1.66;63.12
72308;BME280;60257;42.638;23.376;2023-01-26T10:42:34;94559.31;;;1.69;62.95
72308;BME280;60257;42.638;23.376;2023-01-26T10:48:02;94548.66;;;1.78;63.14
72308;BME280;60257;42.638;23.376;2023-01-26T10:50:28;94548.84;;;1.81;63.10
72308;BME280;60257;42.638;23.376;2023-01-26T10:52:59;94530.50;;;1.78;62.74
72308;BME280;60257;42.638;23.376;2023-01-26T10:55:25;94531.91;;;1.76;62.97
72308;BME280;60257;42.638;23.376;2023-01-26T10:57:52;94522.63;;;1.82;63.21
72308;BME280;60257;42.638;23.376;2023-01-26T11:02:52;94503.13;;;1.99;62.37
72308;BME280;60257;42.638;23.376;2023-01-26T11:05:23;94500.94;;;2.01;62.04
72308;BME280;60257;42.638;23.376;2023-01-26T11:07:53;94506.72;;;1.94;62.46
72308;BME280;60257;42.638;23.376;2023-01-26T11:10:35;94503.66;;;2.01;63.06
72308;BME280;60257;42.638;23.376;2023-01-26T11:13:20;94493.81;;;2.05;62.51
72308;BME280;60257;42.638;23.376;2023-01-26T11:15:48;94489.34;;;2.14;62.64
72308;BME280;60257;42.638;23.376;2023-01-26T11:21:21;94477.28;;;1.92;63.17
72308;BME280;60257;42.638;23.376;2023-01-26T11:34:54;94441.03;;;2.07;63.79
72308;BME280;60257;42.638;23.376;2023-01-26T11:58:54;94435.34;;;2.22;62.85
72308;BME280;60257;42.638;23.376;2023-01-26T12:01:33;94422.13;;;2.21;62.89
72308;BME280;60257;42.638;23.376;2023-01-26T12:04:00;94419.50;;;2.29;62.99
72308;BME280;60257;42.638;23.376;2023-01-26T12:06:44;94416.69;;;2.35;63.32
72308;BME280;60257;42.638;23.376;2023-01-26T12:11:56;94408.41;;;2.31;63.40
72308;BME280;60257;42.638;23.376;2023-01-26T12:14:30;94410.97;;;2.36;63.51
72308;BME280;60257;42.638;23.376;2023-01-26T12:19:58;94393.66;;;2.37;63.37
72308;BME280;60257;42.638;23.376;2023-01-26T12:22:40;94395.34;;;2.47;63.72
72308;BME280;60257;42.638;23.376;2023-01-26T12:25:33;94388.44;;;2.54;62.85
72308;BME280;60257;42.638;23.376;2023-01-26T12:28:21;94370.38;;;2.50;63.12
72308;BME280;60257;42.638;23.376;2023-01-26T12:30:54;94378.94;;;2.29;63.76
72308;BME280;60257;42.638;23.376;2023-01-26T12:33:21;94371.19;;;2.37;63.47
72308;BME280;60257;42.638;23.376;2023-01-26T12:38:45;94362.16;;;2.41;63.77
72308;BME280;60257;42.638;23.376;2023-01-26T12:41:30;94355.16;;;2.40;64.15
72308;BME280;60257;42.638;23.376;2023-01-26T12:46:50;94358.25;;;2.33;64.70
72308;BME280;60257;42.638;23.376;2023-01-26T12:49:29;94360.56;;;2.26;64.99
72308;BME280;60257;42.638;23.376;2023-01-26T12:52:17;94367.50;;;2.19;65.55
72308;BME280;60257;42.638;23.376;2023-01-26T12:55:14;94365.41;;;2.16;65.91
72308;BME280;60257;42.638;23.376;2023-01-26T12:57:52;94340.34;;;2.10;66.37
72308;BME280;60257;42.638;23.376;2023-01-26T13:00:21;94354.06;;;2.27;65.97
72308;BME280;60257;42.638;23.376;2023-01-26T13:02:52;94347.34;;;2.25;65.76
72308;BME280;60257;42.638;23.376;2023-01-26T13:05:27;94351.16;;;2.38;65.37
72308;BME280;60257;42.638;23.376;2023-01-26T13:07:52;94342.75;;;2.25;66.18
72308;BME280;60257;42.638;23.376;2023-01-26T13:10:24;94347.66;;;2.23;66.22
72308;BME280;60257;42.638;23.376;2023-01-26T13:12:58;94348.78;;;2.22;65.79
72308;BME280;60257;42.638;23.376;2023-01-26T13:15:27;94360.00;;;2.16;66.34
72308;BME280;60257;42.638;23.376;2023-01-26T13:28:45;94338.97;;;2.13;66.37
72308;BME280;60257;42.638;23.376;2023-01-26T13:31:11;94351.16;;;2.10;67.04
72308;BME280;60257;42.638;23.376;2023-01-26T13:33:38;94322.13;;;2.02;67.17
72308;BME280;60257;42.638;23.376;2023-01-26T13:36:22;94332.84;;;2.21;66.46
72308;BME280;60257;42.638;23.376;2023-01-26T13:39:02;94332.16;;;2.15;66.90
72308;BME280;60257;42.638;23.376;2023-01-26T13:41:30;94326.91;;;2.19;67.13
72308;BME280;60257;42.638;23.376;2023-01-26T13:44:07;94311.41;;;2.11;66.84
72308;BME280;60257;42.638;23.376;2023-01-26T13:46:59;94317.81;;;2.15;67.17
72308;BME280;60257;42.638;23.376;2023-01-26T13:49:36;94315.53;;;2.08;67.24
72308;BME280;60257;42.638;23.376;2023-01-26T13:52:03;94310.19;;;2.17;66.92
72308;BME280;60257;42.638;23.376;2023-01-26T13:54:40;94310.81;;;2.14;66.66
72308;BME280;60257;42.638;23.376;2023-01-26T13:57:10;94317.91;;;2.23;67.07
72308;BME280;60257;42.638;23.376;2023-01-26T13:59:48;94300.25;;;2.26;66.78
72308;BME280;60257;42.638;23.376;2023-01-26T14:02:25;94293.06;;;2.21;66.53
72308;BME280;60257;42.638;23.376;2023-01-26T14:04:54;94291.34;;;2.25;66.12
72308;BME280;60257;42.638;23.376;2023-01-26T14:07:51;94284.66;;;2.23;66.49
72308;BME280;60257;42.638;23.376;2023-01-26T14:10:18;94272.72;;;2.24;65.94
72308;BME280;60257;42.638;23.376;2023-01-26T14:12:47;94271.28;;;2.26;66.50
72308;BME280;60257;42.638;23.376;2023-01-26T14:15:25;94271.50;;;2.30;66.04
72308;BME280;60257;42.638;23.376;2023-01-26T14:17:58;94276.03;;;2.21;66.12
72308;BME280;60257;42.638;23.376;2023-01-26T14:20:38;94282.94;;;2.13;65.67
72308;BME280;60257;42.638;23.376;2023-01-26T14:23:13;94279.94;;;2.15;66.13
72308;BME280;60257;42.638;23.376;2023-01-26T14:28:15;94260.00;;;2.11;65.70
72308;BME280;60257;42.638;23.376;2023-01-26T14:30:41;94269.00;;;2.20;65.33